createdAt,value
2023-05-20T00:02:17.331Z,16.21
2023-05-20T00:04:44.265Z,16.26
2023-05-20T00:07:11.144Z,16.41
2023-05-20T00:09:40.134Z,16.54
2023-05-20T00:12:07.194Z,16.61
2023-05-20T00:14:34.189Z,16.57
2023-05-20T00:17:01.057Z,16.59
2023-05-20T00:19:28.069Z,16.64
2023-05-20T00:21:57.599Z,16.63
2023-05-20T00:24:25.560Z,16.73
2023-05-20T00:26:52.388Z,16.73
2023-05-20T00:29:22.426Z,16.75
2023-05-20T00:31:49.496Z,16.77
2023-05-20T00:34:16.288Z,16.71
2023-05-20T00:36:43.237Z,16.72
2023-05-20T00:39:10.135Z,16.73
2023-05-20T00:41:36.892Z,16.65
2023-05-20T00:44:03.744Z,16.66
2023-05-20T00:46:31.146Z,16.63
2023-05-20T00:48:58.201Z,16.71
2023-05-20T00:51:25.135Z,16.54
2023-05-20T00:53:52.634Z,16.50
2023-05-20T00:56:22.195Z,16.38
2023-05-20T00:58:50.864Z,16.38
2023-05-20T01:01:17.791Z,16.30
2023-05-20T01:03:44.859Z,16.25
2023-05-20T01:06:11.697Z,16.19
2023-05-20T01:08:38.685Z,16.11
2023-05-20T01:11:20.786Z,15.93
2023-05-20T01:13:54.474Z,15.89
2023-05-20T01:16:24.594Z,15.85
2023-05-20T01:18:57.556Z,15.96
2023-05-20T01:21:25.131Z,15.84
2023-05-20T01:23:52.395Z,15.95
2023-05-20T01:26:21.786Z,15.99
2023-05-20T01:28:51.237Z,15.95
2023-05-20T01:31:24.815Z,15.88
2023-05-20T01:33:58.051Z,15.94
2023-05-20T01:36:27.288Z,15.79
2023-05-20T01:38:54.942Z,15.86
2023-05-20T01:41:25.199Z,15.76
2023-05-20T01:43:53.661Z,15.83
2023-05-20T01:46:20.636Z,15.75
2023-05-20T01:48:48.759Z,15.76
2023-05-20T01:51:16.180Z,15.75
2023-05-20T01:53:43.711Z,15.79
2023-05-20T01:56:10.906Z,15.86
2023-05-20T01:58:37.985Z,15.77
2023-05-20T02:01:04.940Z,15.80
2023-05-20T02:03:31.813Z,15.80
2023-05-20T02:05:59.706Z,15.73
2023-05-20T02:08:26.703Z,15.76
2023-05-20T02:10:53.504Z,15.76
2023-05-20T02:13:20.542Z,15.79
2023-05-20T02:15:48.412Z,15.81
2023-05-20T02:18:18.513Z,15.78
2023-05-20T02:20:45.401Z,15.71
2023-05-20T02:23:12.282Z,15.75
2023-05-20T02:25:39.116Z,15.80
2023-05-20T02:28:10.611Z,15.83
2023-05-20T02:30:40.613Z,15.83
2023-05-20T02:33:08.021Z,15.83
2023-05-20T02:35:35.200Z,15.72
2023-05-20T02:38:02.230Z,15.82
2023-05-20T02:40:29.097Z,15.86
2023-05-20T02:42:56.144Z,15.95
2023-05-20T02:45:23.016Z,15.94
2023-05-20T02:47:51.344Z,16.07
2023-05-20T02:50:18.297Z,16.08
2023-05-20T02:52:45.707Z,16.10
2023-05-20T02:55:12.958Z,16.10
2023-05-20T02:57:39.894Z,16.06
2023-05-20T03:00:13.252Z,16.19
2023-05-20T03:02:40.198Z,16.09
2023-05-20T03:05:08.134Z,16.15
2023-05-20T03:07:38.764Z,16.12
2023-05-20T03:10:08.085Z,16.20
2023-05-20T03:12:34.972Z,16.28
2023-05-20T03:15:01.839Z,16.38
2023-05-20T03:17:28.766Z,16.35
2023-05-20T03:19:57.043Z,16.43
2023-05-20T03:22:24.505Z,16.43
2023-05-20T03:24:52.978Z,16.46
2023-05-20T03:27:21.572Z,16.46
2023-05-20T03:29:48.367Z,16.50
2023-05-20T03:32:15.662Z,16.54
2023-05-20T03:34:42.534Z,16.55
2023-05-20T03:37:09.326Z,16.56
2023-05-20T03:39:36.291Z,16.54
2023-05-20T03:42:03.625Z,16.57
2023-05-20T03:44:30.673Z,16.53
2023-05-20T03:46:57.739Z,16.55
2023-05-20T03:49:24.785Z,16.55
2023-05-20T03:51:51.682Z,16.54
2023-05-20T03:54:18.698Z,16.46
2023-05-20T03:56:49.948Z,16.51
2023-05-20T03:59:17.958Z,16.50
2023-05-20T04:01:46.436Z,16.52
2023-05-20T04:04:13.357Z,16.54
2023-05-20T04:06:40.646Z,16.51
2023-05-20T04:09:07.526Z,16.47
2023-05-20T04:11:34.566Z,16.50
2023-05-20T04:14:01.329Z,16.41
2023-05-20T04:16:29.729Z,16.43
2023-05-20T04:18:59.193Z,16.45
2023-05-20T04:21:26.271Z,16.48
2023-05-20T04:23:53.274Z,16.33
2023-05-20T04:26:20.770Z,16.38
2023-05-20T04:28:50.743Z,16.24
2023-05-20T04:31:18.748Z,16.25
2023-05-20T04:33:46.864Z,16.18
2023-05-20T04:36:16.493Z,16.11
2023-05-20T04:38:44.775Z,16.03
2023-05-20T04:41:11.836Z,16.11
2023-05-20T04:43:40.436Z,16.02
2023-05-20T04:46:08.153Z,15.82
2023-05-20T04:48:36.047Z,15.72
2023-05-20T04:51:03.276Z,15.55
2023-05-20T04:53:31.605Z,15.72
2023-05-20T04:55:58.450Z,15.63
2023-05-20T04:58:25.436Z,15.70
2023-05-20T05:00:53.006Z,15.70
2023-05-20T05:03:20.107Z,15.66
2023-05-20T05:05:50.755Z,15.60
2023-05-20T05:08:17.594Z,15.59
2023-05-20T05:10:49.438Z,15.70
2023-05-20T05:13:16.413Z,15.78
2023-05-20T05:15:43.627Z,15.77
2023-05-20T05:18:11.671Z,15.75
2023-05-20T05:20:39.161Z,15.90
2023-05-20T05:23:06.355Z,15.98
2023-05-20T05:25:33.600Z,15.94
2023-05-20T05:28:00.616Z,15.85
2023-05-20T05:30:28.251Z,15.89
2023-05-20T05:32:55.217Z,16.03
2023-05-20T05:35:22.808Z,16.07
2023-05-20T05:37:49.705Z,16.19
2023-05-20T05:40:16.990Z,16.24
2023-05-20T05:42:44.152Z,16.29
2023-05-20T05:45:11.552Z,16.36
2023-05-20T05:47:38.665Z,16.26
2023-05-20T05:50:06.202Z,16.17
2023-05-20T05:52:34.366Z,16.26
2023-05-20T05:55:03.132Z,16.19
2023-05-20T05:57:31.132Z,16.23
2023-05-20T05:59:58.833Z,16.18
2023-05-20T06:02:26.984Z,16.30
2023-05-20T06:04:54.316Z,16.35
2023-05-20T06:07:21.581Z,16.50
2023-05-20T06:09:50.298Z,16.54
2023-05-20T06:12:17.169Z,16.51
2023-05-20T06:14:44.103Z,16.37
2023-05-20T06:17:11.003Z,16.45
2023-05-20T06:19:38.190Z,16.38
2023-05-20T06:22:05.277Z,16.42
2023-05-20T06:24:33.068Z,16.51
2023-05-20T06:27:01.521Z,16.30
2023-05-20T06:29:29.172Z,16.36
2023-05-20T06:31:56.011Z,16.51
2023-05-20T06:34:23.731Z,16.50
2023-05-20T06:36:50.729Z,16.48
2023-05-20T06:39:17.522Z,16.51
2023-05-20T06:41:45.987Z,16.62
2023-05-20T06:44:19.692Z,16.92
2023-05-20T06:46:59.481Z,16.91
2023-05-20T06:49:26.437Z,17.02
2023-05-20T06:51:54.281Z,17.13
2023-05-20T06:54:22.079Z,17.10
2023-05-20T06:56:49.308Z,17.08
2023-05-20T06:59:16.182Z,17.11
2023-05-20T07:01:43.612Z,17.07
2023-05-20T07:04:10.833Z,17.18
2023-05-20T07:06:38.171Z,17.11
2023-05-20T07:09:05.635Z,17.31
2023-05-20T07:11:33.154Z,17.34
2023-05-20T07:14:00.486Z,17.42
2023-05-20T07:16:30.193Z,17.62
2023-05-20T07:18:57.186Z,17.70
2023-05-20T07:21:24.428Z,17.69
2023-05-20T07:24:11.202Z,17.70
2023-05-20T07:26:38.226Z,17.93
2023-05-20T07:29:05.340Z,17.93
2023-05-20T07:31:33.043Z,17.99
2023-05-20T07:33:59.958Z,18.11
2023-05-20T07:36:30.789Z,18.14
2023-05-20T07:39:04.739Z,18.26
2023-05-20T07:41:35.753Z,18.38
2023-05-20T07:44:05.420Z,18.29
2023-05-20T07:46:34.771Z,18.42
2023-05-20T07:49:01.701Z,18.41
2023-05-20T07:51:28.575Z,18.49
2023-05-20T07:53:55.608Z,18.50
2023-05-20T07:56:22.558Z,18.43
2023-05-20T07:58:54.934Z,18.52
2023-05-20T08:01:23.267Z,18.59
2023-05-20T08:03:50.745Z,18.60
2023-05-20T08:06:21.114Z,18.63
2023-05-20T08:08:48.414Z,18.57
2023-05-20T08:11:23.969Z,18.65
2023-05-20T08:13:50.803Z,18.70
2023-05-20T08:16:18.052Z,18.78
2023-05-20T08:18:46.115Z,18.88
2023-05-20T08:21:14.177Z,18.91
2023-05-20T08:23:41.351Z,18.97
2023-05-20T08:26:08.248Z,19.30
2023-05-20T08:28:38.335Z,19.33
2023-05-20T08:31:05.666Z,19.53
2023-05-20T08:33:33.283Z,19.48
2023-05-20T08:36:00.835Z,19.64
2023-05-20T08:38:28.153Z,19.83
2023-05-20T08:40:58.291Z,20.02
2023-05-20T08:43:27.037Z,20.10
2023-05-20T08:45:55.019Z,20.23
2023-05-20T08:48:26.669Z,20.34
2023-05-20T08:50:57.190Z,20.46
2023-05-20T08:53:24.209Z,20.53
2023-05-20T08:56:02.816Z,20.57
2023-05-20T08:58:30.651Z,20.69
2023-05-20T09:00:58.995Z,20.79
2023-05-20T09:03:25.861Z,20.90
2023-05-20T09:06:07.642Z,20.96
2023-05-20T09:08:34.545Z,21.00
2023-05-20T09:11:01.626Z,21.03
2023-05-20T09:13:32.756Z,21.08
2023-05-20T09:16:01.708Z,21.23
2023-05-20T09:18:29.447Z,21.28
2023-05-20T09:20:57.057Z,21.34
2023-05-20T09:23:25.731Z,21.29
2023-05-20T09:25:53.071Z,21.29
2023-05-20T09:28:25.243Z,21.24
2023-05-20T09:30:58.142Z,21.32
2023-05-20T09:33:32.144Z,21.40
2023-05-20T09:36:07.409Z,21.43
2023-05-20T09:38:39.072Z,21.46
2023-05-20T09:41:08.758Z,21.55
2023-05-20T09:43:37.324Z,21.70
2023-05-20T09:46:04.801Z,21.93
2023-05-20T09:48:34.173Z,22.13
2023-05-20T09:51:02.596Z,22.27
2023-05-20T09:53:29.907Z,22.40
2023-05-20T09:55:57.009Z,22.28
2023-05-20T09:58:24.951Z,22.32
2023-05-20T10:00:54.074Z,22.17
2023-05-20T10:03:25.133Z,22.11
2023-05-20T10:06:10.108Z,22.17
2023-05-20T10:08:58.425Z,22.18
2023-05-20T10:11:37.245Z,22.16
2023-05-20T10:14:20.796Z,22.17
2023-05-20T10:17:09.086Z,22.16
2023-05-20T10:19:36.300Z,22.02
2023-05-20T10:22:05.835Z,22.07
2023-05-20T10:24:38.302Z,22.14
2023-05-20T10:27:08.909Z,22.21
2023-05-20T10:30:02.410Z,22.40
2023-05-20T10:32:34.319Z,22.31
2023-05-20T10:35:05.100Z,22.41
2023-05-20T10:37:43.979Z,22.51
2023-05-20T10:40:13.199Z,22.46
2023-05-20T10:42:40.678Z,22.50
2023-05-20T10:45:08.417Z,22.44
2023-05-20T10:47:36.405Z,22.42
2023-05-20T10:50:05.940Z,22.28
2023-05-20T10:52:38.891Z,22.38
2023-05-20T10:55:06.573Z,22.34
2023-05-20T10:57:34.503Z,22.43
2023-05-20T11:00:02.104Z,22.45
2023-05-20T11:02:29.368Z,22.51
2023-05-20T11:04:58.253Z,22.50
2023-05-20T11:07:29.768Z,22.50
2023-05-20T11:09:57.624Z,22.42
2023-05-20T11:12:26.727Z,22.41
2023-05-20T11:14:53.993Z,22.30
2023-05-20T11:17:21.110Z,22.45
2023-05-20T11:19:48.912Z,22.32
2023-05-20T11:22:16.037Z,22.48
2023-05-20T11:24:42.826Z,22.63
2023-05-20T11:27:09.762Z,22.81
2023-05-20T11:29:37.092Z,22.95
2023-05-20T11:32:04.234Z,22.98
2023-05-20T11:34:36.500Z,22.94
2023-05-20T11:37:07.796Z,23.01
2023-05-20T11:39:34.743Z,23.10
2023-05-20T11:42:01.612Z,22.99
2023-05-20T11:44:28.490Z,22.89
2023-05-20T11:47:01.416Z,23.17
2023-05-20T11:49:28.790Z,23.13
2023-05-20T11:51:56.985Z,22.85
2023-05-20T11:54:24.948Z,22.92
2023-05-20T11:56:53.975Z,23.00
2023-05-20T11:59:23.841Z,23.09
2023-05-20T12:01:50.636Z,23.10
2023-05-20T12:04:18.439Z,23.11
2023-05-20T12:06:45.777Z,23.17
2023-05-20T12:09:14.292Z,23.05
2023-05-20T12:11:41.926Z,23.12
2023-05-20T12:14:09.454Z,23.20
2023-05-20T12:16:37.805Z,23.12
2023-05-20T12:19:05.048Z,23.20
2023-05-20T12:21:32.139Z,23.27
2023-05-20T12:24:02.181Z,23.45
2023-05-20T12:26:30.202Z,23.52
2023-05-20T12:28:57.324Z,23.51
2023-05-20T12:31:25.304Z,23.42
2023-05-20T12:33:52.356Z,23.50
2023-05-20T12:36:19.803Z,23.62
2023-05-20T12:38:47.249Z,23.47
2023-05-20T12:41:14.204Z,23.47
2023-05-20T12:43:40.991Z,23.43
2023-05-20T12:46:07.852Z,23.46
2023-05-20T12:48:34.814Z,23.51
2023-05-20T12:51:01.638Z,23.25
2023-05-20T12:53:28.498Z,23.39
2023-05-20T12:55:55.609Z,23.35
2023-05-20T12:58:22.552Z,23.46
2023-05-20T13:00:49.434Z,23.51
2023-05-20T13:03:16.527Z,23.51
2023-05-20T13:05:43.329Z,23.45
2023-05-20T13:08:11.073Z,23.32
2023-05-20T13:10:38.261Z,23.16
2023-05-20T13:13:05.095Z,23.17
2023-05-20T13:15:33.393Z,23.07
2023-05-20T13:18:01.590Z,23.14
2023-05-20T13:20:29.763Z,23.08
2023-05-20T13:22:56.603Z,22.87
2023-05-20T13:25:23.506Z,22.72
2023-05-20T13:27:50.299Z,22.83
2023-05-20T13:30:17.183Z,22.63
2023-05-20T13:32:44.106Z,22.51
2023-05-20T13:35:11.093Z,22.43
2023-05-20T13:37:38.022Z,22.38
2023-05-20T13:40:05.639Z,22.27
2023-05-20T13:42:32.549Z,22.34
2023-05-20T13:44:59.366Z,22.44
2023-05-20T13:47:26.244Z,22.55
2023-05-20T13:49:53.107Z,22.67
2023-05-20T13:52:19.933Z,22.70
2023-05-20T13:54:48.723Z,22.85
2023-05-20T13:57:16.220Z,22.93
2023-05-20T13:59:43.155Z,23.03
2023-05-20T14:02:10.226Z,23.15
2023-05-20T14:04:41.053Z,23.10
2023-05-20T14:07:09.834Z,23.07
2023-05-20T14:09:36.922Z,23.14
2023-05-20T14:12:04.880Z,23.40
2023-05-20T14:14:32.072Z,23.40
2023-05-20T14:16:58.857Z,23.32
2023-05-20T14:19:27.154Z,23.05
2023-05-20T14:21:54.182Z,22.85
2023-05-20T14:24:23.484Z,22.83
2023-05-20T14:26:50.848Z,22.96
2023-05-20T14:29:17.796Z,22.87
2023-05-20T14:31:47.237Z,22.76
2023-05-20T14:34:17.025Z,22.73
2023-05-20T14:36:44.311Z,22.63
2023-05-20T14:39:11.120Z,22.68
2023-05-20T14:41:37.988Z,22.44
2023-05-20T14:44:05.009Z,22.37
2023-05-20T14:46:32.573Z,22.56
2023-05-20T14:49:00.146Z,22.40
2023-05-20T14:51:26.962Z,22.34
2023-05-20T14:53:53.746Z,22.43
2023-05-20T14:56:20.804Z,22.51
2023-05-20T14:58:47.714Z,22.45
2023-05-20T15:01:14.721Z,22.45
2023-05-20T15:03:41.649Z,22.52
2023-05-20T15:06:08.595Z,22.51
2023-05-20T15:08:35.740Z,22.70
2023-05-20T15:11:02.741Z,22.64
2023-05-20T15:13:29.560Z,22.85
2023-05-20T15:15:56.560Z,22.92
2023-05-20T15:18:23.312Z,22.39
2023-05-20T15:20:50.161Z,22.52
2023-05-20T15:23:18.195Z,22.24
2023-05-20T15:25:45.115Z,22.51
2023-05-20T15:28:11.953Z,22.53
2023-05-20T15:30:38.813Z,22.56
2023-05-20T15:33:05.787Z,22.51
2023-05-20T15:35:32.622Z,22.45
2023-05-20T15:37:59.478Z,22.43
2023-05-20T15:40:26.308Z,22.36
2023-05-20T15:42:53.644Z,22.31
2023-05-20T15:45:20.796Z,22.39
2023-05-20T15:47:47.762Z,22.37
2023-05-20T15:50:14.547Z,22.39
2023-05-20T15:52:41.516Z,22.39
2023-05-20T15:55:09.261Z,22.27
2023-05-20T15:57:36.058Z,22.31
2023-05-20T16:00:05.848Z,22.02
2023-05-20T16:02:36.065Z,22.11
2023-05-20T16:05:03.995Z,22.22
2023-05-20T16:07:31.301Z,22.23
2023-05-20T16:09:58.334Z,22.03
2023-05-20T16:12:25.161Z,22.05
2023-05-20T16:14:51.929Z,21.88
2023-05-20T16:17:21.270Z,21.97
2023-05-20T16:19:48.938Z,21.89
2023-05-20T16:22:16.484Z,21.87
2023-05-20T16:24:43.328Z,21.82
2023-05-20T16:27:11.341Z,21.93
2023-05-20T16:29:41.210Z,21.87
2023-05-20T16:32:08.167Z,21.76
2023-05-20T16:34:35.184Z,21.88
2023-05-20T16:37:02.094Z,21.83
2023-05-20T16:39:28.945Z,21.86
2023-05-20T16:41:56.011Z,21.83
2023-05-20T16:44:22.900Z,21.68
2023-05-20T16:46:50.828Z,21.73
2023-05-20T16:49:18.802Z,21.67
2023-05-20T16:51:46.936Z,21.73
2023-05-20T16:54:13.784Z,21.73
2023-05-20T16:56:40.627Z,21.70
2023-05-20T16:59:07.412Z,21.70
2023-05-20T17:01:34.435Z,21.76
2023-05-20T17:04:01.346Z,21.74
2023-05-20T17:06:28.217Z,21.68
2023-05-20T17:08:55.097Z,21.70
2023-05-20T17:11:22.576Z,21.69
2023-05-20T17:13:49.457Z,21.68
2023-05-20T17:16:16.249Z,21.65
2023-05-20T17:18:43.410Z,21.60
2023-05-20T17:21:10.266Z,21.58
2023-05-20T17:23:37.058Z,21.56
2023-05-20T17:26:04.143Z,21.57
2023-05-20T17:28:31.052Z,21.55
2023-05-20T17:30:57.899Z,21.58
2023-05-20T17:33:24.934Z,21.54
2023-05-20T17:35:51.794Z,21.51
2023-05-20T17:38:18.632Z,21.53
2023-05-20T17:40:45.467Z,21.46
2023-05-20T17:43:12.279Z,21.42
2023-05-20T17:45:39.130Z,21.38
2023-05-20T17:48:08.765Z,21.37
2023-05-20T17:50:37.810Z,21.34
2023-05-20T17:53:04.640Z,21.36
2023-05-20T17:55:32.893Z,21.34
2023-05-20T17:58:01.873Z,21.33
2023-05-20T18:00:28.876Z,21.26
2023-05-20T18:02:58.637Z,21.22
2023-05-20T18:05:26.007Z,21.15
2023-05-20T18:07:53.063Z,21.16
2023-05-20T18:10:20.076Z,21.17
2023-05-20T18:12:46.865Z,21.09
2023-05-20T18:15:14.187Z,21.07
2023-05-20T18:17:41.079Z,21.04
2023-05-20T18:20:09.716Z,21.04
2023-05-20T18:22:36.629Z,21.02
2023-05-20T18:25:03.706Z,21.00
2023-05-20T18:27:31.877Z,21.03
2023-05-20T18:29:58.708Z,20.98
2023-05-20T18:32:28.561Z,20.98
2023-05-20T18:34:55.465Z,20.95
2023-05-20T18:37:22.272Z,20.90
2023-05-20T18:39:49.097Z,20.84
2023-05-20T18:42:15.971Z,20.84
2023-05-20T18:44:43.474Z,20.79
2023-05-20T18:47:10.744Z,20.79
2023-05-20T18:49:37.635Z,20.78
2023-05-20T18:52:04.655Z,20.77
2023-05-20T18:54:31.460Z,20.74
2023-05-20T18:56:58.329Z,20.71
2023-05-20T18:59:25.360Z,20.70
2023-05-20T19:01:52.310Z,20.68
2023-05-20T19:04:19.085Z,20.66
2023-05-20T19:06:45.862Z,20.66
2023-05-20T19:09:12.703Z,20.66
2023-05-20T19:11:39.467Z,20.63
2023-05-20T19:14:07.549Z,20.62
2023-05-20T19:16:34.453Z,20.60
2023-05-20T19:19:01.464Z,20.61
2023-05-20T19:21:29.547Z,20.58
2023-05-20T19:23:56.409Z,20.56
2023-05-20T19:26:24.691Z,20.57
2023-05-20T19:28:51.592Z,20.56
2023-05-20T19:31:21.263Z,20.54
2023-05-20T19:33:50.125Z,20.52
2023-05-20T19:36:17.434Z,20.49
2023-05-20T19:38:44.663Z,20.49
2023-05-20T19:41:12.827Z,20.46
2023-05-20T19:43:40.119Z,20.36
2023-05-20T19:46:06.981Z,20.31
2023-05-20T19:48:34.083Z,20.27
2023-05-20T19:51:01.626Z,20.23
2023-05-20T19:53:28.383Z,20.20
2023-05-20T19:55:55.189Z,20.28
2023-05-20T19:58:22.543Z,20.25
2023-05-20T20:00:49.502Z,20.13
2023-05-20T20:03:16.338Z,20.11
2023-05-20T20:05:43.238Z,19.84
2023-05-20T20:08:10.200Z,19.73
2023-05-20T20:10:37.727Z,19.69
2023-05-20T20:13:04.563Z,19.40
2023-05-20T20:15:32.976Z,19.46
2023-05-20T20:18:02.946Z,19.55
2023-05-20T20:20:29.731Z,19.50
2023-05-20T20:22:59.611Z,19.37
2023-05-20T20:25:26.854Z,19.47
2023-05-20T20:27:53.779Z,19.57
2023-05-20T20:30:21.770Z,19.67
2023-05-20T20:32:48.620Z,19.73
2023-05-20T20:35:15.951Z,19.70
2023-05-20T20:37:44.730Z,19.74
2023-05-20T20:40:13.792Z,19.70
2023-05-20T20:42:50.132Z,19.71
2023-05-20T20:45:17.090Z,19.74
2023-05-20T20:47:44.751Z,19.76
2023-05-20T20:50:11.938Z,19.80
2023-05-20T20:52:39.931Z,19.74
2023-05-20T20:55:07.176Z,19.73
2023-05-20T20:57:35.224Z,19.75
2023-05-20T21:00:15.984Z,19.72
2023-05-20T21:02:44.475Z,19.62
2023-05-20T21:05:11.406Z,19.66
2023-05-20T21:07:43.542Z,19.67
2023-05-20T21:10:10.654Z,19.70
2023-05-20T21:12:37.410Z,19.74
2023-05-20T21:15:04.756Z,19.70
2023-05-20T21:17:31.695Z,19.62
2023-05-20T21:19:58.615Z,19.68
2023-05-20T21:22:25.530Z,19.70
2023-05-20T21:24:52.324Z,19.76
2023-05-20T21:27:19.113Z,19.73
2023-05-20T21:29:45.916Z,19.79
2023-05-20T21:32:14.301Z,19.80
2023-05-20T21:34:41.090Z,19.82
2023-05-20T21:37:07.903Z,19.83
2023-05-20T21:39:35.791Z,19.82
2023-05-20T21:42:02.778Z,19.84
2023-05-20T21:44:32.267Z,19.72
2023-05-20T21:46:59.564Z,19.66
2023-05-20T21:49:26.379Z,19.48
2023-05-20T21:51:53.469Z,19.37
2023-05-20T21:54:20.346Z,19.25
2023-05-20T21:56:47.141Z,19.23
2023-05-20T21:59:14.825Z,19.01
2023-05-20T22:01:43.757Z,19.08
2023-05-20T22:04:11.967Z,19.05
2023-05-20T22:06:39.791Z,19.15
2023-05-20T22:09:06.720Z,19.16
2023-05-20T22:11:33.844Z,19.27
2023-05-20T22:14:02.192Z,19.20
2023-05-20T22:16:29.071Z,19.18
2023-05-20T22:18:57.128Z,19.26
2023-05-20T22:21:24.655Z,19.31
2023-05-20T22:23:51.448Z,19.34
2023-05-20T22:26:19.753Z,19.41
2023-05-20T22:28:46.649Z,19.44
2023-05-20T22:31:13.684Z,19.49
2023-05-20T22:33:42.080Z,19.45
2023-05-20T22:36:09.652Z,19.43
2023-05-20T22:38:37.694Z,19.39
2023-05-20T22:41:04.735Z,19.33
2023-05-20T22:43:31.527Z,19.30
2023-05-20T22:45:58.493Z,19.25
2023-05-20T22:48:25.419Z,19.16
2023-05-20T22:50:54.124Z,19.02
2023-05-20T22:53:21.039Z,19.08
2023-05-20T22:55:48.086Z,19.09
2023-05-20T22:58:15.219Z,18.93
2023-05-20T23:00:42.138Z,18.99
2023-05-20T23:03:08.990Z,19.10
2023-05-20T23:05:36.218Z,19.08
2023-05-20T23:08:03.422Z,19.05
2023-05-20T23:10:30.354Z,19.05
2023-05-20T23:12:58.113Z,18.98
2023-05-20T23:15:25.386Z,19.00
2023-05-20T23:17:52.404Z,19.01
2023-05-20T23:20:19.348Z,19.05
2023-05-20T23:22:46.442Z,19.11
2023-05-20T23:25:13.402Z,19.12
2023-05-20T23:27:40.844Z,19.03
2023-05-20T23:30:08.669Z,18.94
2023-05-20T23:32:35.575Z,18.83
2023-05-20T23:35:06.733Z,18.86
2023-05-20T23:37:34.553Z,18.76
2023-05-20T23:40:01.349Z,18.75
2023-05-20T23:42:29.046Z,18.72
2023-05-20T23:44:55.936Z,18.73
2023-05-20T23:47:25.909Z,18.75
2023-05-20T23:49:58.643Z,18.70
2023-05-20T23:52:28.227Z,18.74
2023-05-20T23:54:56.437Z,18.66
2023-05-20T23:57:25.466Z,18.68
2023-05-20T23:59:52.795Z,18.74
